sensor_id;sensor_type;location;lat;lon;timestamp;P1;durP1;ratioP1;P2;durP2;ratioP2
3046;SDS011;1533;44.816;20.420;2022-07-06T00:01:46;8.97;;;8.03;;
3046;SDS011;1533;44.816;20.420;2022-07-06T00:04:11;9.10;;;8.20;;
3046;SDS011;1533;44.816;20.420;2022-07-06T00:06:37;19.00;;;9.30;;
3046;SDS011;1533;44.816;20.420;2022-07-06T00:09:04;12.10;;;8.13;;
3046;SDS011;1533;44.816;20.420;2022-07-06T00:11:30;9.93;;;8.63;;
3046;SDS011;1533;44.816;20.420;2022-07-06T00:13:56;12.70;;;8.70;;
3046;SDS011;1533;44.816;20.420;2022-07-06T00:16:22;13.10;;;8.70;;
3046;SDS011;1533;44.816;20.420;2022-07-06T00:18:48;11.10;;;8.07;;
3046;SDS011;1533;44.816;20.420;2022-07-06T00:21:14;9.27;;;8.30;;
3046;SDS011;1533;44.816;20.420;2022-07-06T00:23:39;11.47;;;8.10;;
3046;SDS011;1533;44.816;20.420;2022-07-06T00:26:05;8.07;;;7.27;;
3046;SDS011;1533;44.816;20.420;2022-07-06T00:28:31;9.97;;;8.23;;
3046;SDS011;1533;44.816;20.420;2022-07-06T00:30:56;12.77;;;8.53;;
3046;SDS011;1533;44.816;20.420;2022-07-06T00:33:22;9.50;;;8.43;;
3046;SDS011;1533;44.816;20.420;2022-07-06T00:35:47;10.57;;;7.53;;
3046;SDS011;1533;44.816;20.420;2022-07-06T00:38:14;8.20;;;7.00;;
3046;SDS011;1533;44.816;20.420;2022-07-06T00:40:39;9.70;;;8.30;;
3046;SDS011;1533;44.816;20.420;2022-07-06T00:43:05;9.23;;;8.23;;
3046;SDS011;1533;44.816;20.420;2022-07-06T00:45:30;11.03;;;8.37;;
3046;SDS011;1533;44.816;20.420;2022-07-06T00:47:56;9.43;;;7.67;;
3046;SDS011;1533;44.816;20.420;2022-07-06T00:50:21;10.17;;;9.03;;
3046;SDS011;1533;44.816;20.420;2022-07-06T00:52:48;11.83;;;7.90;;
3046;SDS011;1533;44.816;20.420;2022-07-06T00:55:16;11.00;;;8.07;;
3046;SDS011;1533;44.816;20.420;2022-07-06T00:57:43;8.80;;;7.90;;
3046;SDS011;1533;44.816;20.420;2022-07-06T01:00:10;9.07;;;7.90;;
3046;SDS011;1533;44.816;20.420;2022-07-06T01:02:38;13.17;;;8.40;;
3046;SDS011;1533;44.816;20.420;2022-07-06T01:05:04;10.27;;;8.60;;
3046;SDS011;1533;44.816;20.420;2022-07-06T01:07:31;11.13;;;8.53;;
3046;SDS011;1533;44.816;20.420;2022-07-06T01:09:56;14.33;;;8.00;;
3046;SDS011;1533;44.816;20.420;2022-07-06T01:12:22;12.20;;;7.87;;
3046;SDS011;1533;44.816;20.420;2022-07-06T01:14:48;11.70;;;8.77;;
3046;SDS011;1533;44.816;20.420;2022-07-06T01:17:15;7.90;;;7.10;;
3046;SDS011;1533;44.816;20.420;2022-07-06T01:19:40;9.20;;;7.97;;
3046;SDS011;1533;44.816;20.420;2022-07-06T01:22:06;11.17;;;8.23;;
3046;SDS011;1533;44.816;20.420;2022-07-06T01:24:32;10.73;;;7.47;;
3046;SDS011;1533;44.816;20.420;2022-07-06T01:27:00;8.60;;;6.20;;
3046;SDS011;1533;44.816;20.420;2022-07-06T01:29:25;10.87;;;7.97;;
3046;SDS011;1533;44.816;20.420;2022-07-06T01:31:51;8.33;;;7.40;;
3046;SDS011;1533;44.816;20.420;2022-07-06T01:34:17;12.20;;;8.50;;
3046;SDS011;1533;44.816;20.420;2022-07-06T01:36:43;11.77;;;7.17;;
3046;SDS011;1533;44.816;20.420;2022-07-06T01:39:11;9.73;;;8.33;;
3046;SDS011;1533;44.816;20.420;2022-07-06T01:41:37;17.80;;;7.83;;
3046;SDS011;1533;44.816;20.420;2022-07-06T01:44:03;14.00;;;8.90;;
3046;SDS011;1533;44.816;20.420;2022-07-06T01:46:28;11.73;;;8.20;;
3046;SDS011;1533;44.816;20.420;2022-07-06T01:48:54;10.00;;;7.93;;
3046;SDS011;1533;44.816;20.420;2022-07-06T01:51:20;10.70;;;6.77;;
3046;SDS011;1533;44.816;20.420;2022-07-06T01:53:45;14.10;;;7.57;;
3046;SDS011;1533;44.816;20.420;2022-07-06T01:56:11;8.20;;;7.30;;
3046;SDS011;1533;44.816;20.420;2022-07-06T01:58:37;8.43;;;7.13;;
3046;SDS011;1533;44.816;20.420;2022-07-06T02:01:06;9.23;;;7.63;;
3046;SDS011;1533;44.816;20.420;2022-07-06T02:03:36;11.30;;;7.10;;
3046;SDS011;1533;44.816;20.420;2022-07-06T02:06:03;12.33;;;8.53;;
3046;SDS011;1533;44.816;20.420;2022-07-06T02:08:29;8.93;;;7.77;;
3046;SDS011;1533;44.816;20.420;2022-07-06T02:10:55;6.93;;;6.33;;
3046;SDS011;1533;44.816;20.420;2022-07-06T02:13:20;11.87;;;7.60;;
3046;SDS011;1533;44.816;20.420;2022-07-06T02:15:46;8.03;;;7.27;;
3046;SDS011;1533;44.816;20.420;2022-07-06T02:18:11;11.00;;;7.00;;
3046;SDS011;1533;44.816;20.420;2022-07-06T02:20:37;9.80;;;7.03;;
3046;SDS011;1533;44.816;20.420;2022-07-06T02:23:02;8.40;;;7.13;;
3046;SDS011;1533;44.816;20.420;2022-07-06T02:25:28;9.50;;;6.87;;
3046;SDS011;1533;44.816;20.420;2022-07-06T02:27:53;8.17;;;7.37;;
3046;SDS011;1533;44.816;20.420;2022-07-06T02:30:19;9.50;;;7.37;;
3046;SDS011;1533;44.816;20.420;2022-07-06T02:32:44;7.90;;;6.67;;
3046;SDS011;1533;44.816;20.420;2022-07-06T02:35:10;7.83;;;7.03;;
3046;SDS011;1533;44.816;20.420;2022-07-06T02:37:35;10.63;;;7.20;;
3046;SDS011;1533;44.816;20.420;2022-07-06T02:40:01;8.70;;;7.30;;
3046;SDS011;1533;44.816;20.420;2022-07-06T02:42:26;9.07;;;7.13;;
3046;SDS011;1533;44.816;20.420;2022-07-06T02:44:54;10.73;;;6.90;;
3046;SDS011;1533;44.816;20.420;2022-07-06T02:47:19;9.50;;;7.67;;
3046;SDS011;1533;44.816;20.420;2022-07-06T02:49:45;7.70;;;6.90;;
3046;SDS011;1533;44.816;20.420;2022-07-06T02:52:10;7.47;;;6.77;;
3046;SDS011;1533;44.816;20.420;2022-07-06T02:54:36;10.07;;;6.93;;
3046;SDS011;1533;44.816;20.420;2022-07-06T02:57:01;7.93;;;6.77;;
3046;SDS011;1533;44.816;20.420;2022-07-06T02:59:27;8.73;;;7.10;;
3046;SDS011;1533;44.816;20.420;2022-07-06T03:01:52;10.43;;;7.47;;
3046;SDS011;1533;44.816;20.420;2022-07-06T03:04:18;8.90;;;6.40;;
3046;SDS011;1533;44.816;20.420;2022-07-06T03:06:43;7.97;;;7.10;;
3046;SDS011;1533;44.816;20.420;2022-07-06T03:09:09;8.07;;;6.03;;
3046;SDS011;1533;44.816;20.420;2022-07-06T03:11:34;7.07;;;6.37;;
3046;SDS011;1533;44.816;20.420;2022-07-06T03:14:04;7.37;;;6.67;;
3046;SDS011;1533;44.816;20.420;2022-07-06T03:16:29;11.87;;;8.07;;
3046;SDS011;1533;44.816;20.420;2022-07-06T03:18:55;9.23;;;6.40;;
3046;SDS011;1533;44.816;20.420;2022-07-06T03:21:21;7.90;;;7.00;;
3046;SDS011;1533;44.816;20.420;2022-07-06T03:23:47;9.90;;;7.03;;
3046;SDS011;1533;44.816;20.420;2022-07-06T03:26:12;7.20;;;5.90;;
3046;SDS011;1533;44.816;20.420;2022-07-06T03:28:41;7.23;;;6.53;;
3046;SDS011;1533;44.816;20.420;2022-07-06T03:31:06;7.43;;;6.47;;
3046;SDS011;1533;44.816;20.420;2022-07-06T03:33:31;8.80;;;7.00;;
3046;SDS011;1533;44.816;20.420;2022-07-06T03:35:57;9.80;;;7.90;;
3046;SDS011;1533;44.816;20.420;2022-07-06T03:38:22;7.83;;;7.03;;
3046;SDS011;1533;44.816;20.420;2022-07-06T03:40:48;9.97;;;7.30;;
3046;SDS011;1533;44.816;20.420;2022-07-06T03:43:13;10.43;;;6.53;;
3046;SDS011;1533;44.816;20.420;2022-07-06T03:45:38;8.10;;;7.00;;
3046;SDS011;1533;44.816;20.420;2022-07-06T03:48:04;8.00;;;6.80;;
3046;SDS011;1533;44.816;20.420;2022-07-06T03:50:30;7.13;;;6.43;;
3046;SDS011;1533;44.816;20.420;2022-07-06T03:52:55;7.83;;;7.00;;
3046;SDS011;1533;44.816;20.420;2022-07-06T03:55:21;9.87;;;6.30;;
3046;SDS011;1533;44.816;20.420;2022-07-06T03:57:46;10.13;;;7.33;;
3046;SDS011;1533;44.816;20.420;2022-07-06T04:00:12;7.97;;;7.13;;
3046;SDS011;1533;44.816;20.420;2022-07-06T04:02:38;15.63;;;7.50;;
3046;SDS011;1533;44.816;20.420;2022-07-06T04:05:03;8.83;;;6.77;;
3046;SDS011;1533;44.816;20.420;2022-07-06T04:07:29;12.03;;;6.90;;
3046;SDS011;1533;44.816;20.420;2022-07-06T04:09:55;9.47;;;7.20;;
3046;SDS011;1533;44.816;20.420;2022-07-06T04:12:20;9.43;;;6.70;;
3046;SDS011;1533;44.816;20.420;2022-07-06T04:14:46;10.27;;;7.47;;
3046;SDS011;1533;44.816;20.420;2022-07-06T04:17:11;9.70;;;7.80;;
3046;SDS011;1533;44.816;20.420;2022-07-06T04:20:15;10.87;;;7.33;;
3046;SDS011;1533;44.816;20.420;2022-07-06T04:22:40;9.00;;;7.70;;
3046;SDS011;1533;44.816;20.420;2022-07-06T04:25:06;8.70;;;7.57;;
3046;SDS011;1533;44.816;20.420;2022-07-06T04:27:31;9.80;;;8.43;;
3046;SDS011;1533;44.816;20.420;2022-07-06T04:29:57;8.13;;;7.23;;
3046;SDS011;1533;44.816;20.420;2022-07-06T04:32:22;11.33;;;8.80;;
3046;SDS011;1533;44.816;20.420;2022-07-06T04:34:48;8.80;;;8.00;;
3046;SDS011;1533;44.816;20.420;2022-07-06T04:37:13;8.80;;;8.00;;
3046;SDS011;1533;44.816;20.420;2022-07-06T04:39:38;9.60;;;7.37;;
3046;SDS011;1533;44.816;20.420;2022-07-06T04:42:04;9.70;;;8.60;;
3046;SDS011;1533;44.816;20.420;2022-07-06T04:44:29;9.87;;;7.77;;
3046;SDS011;1533;44.816;20.420;2022-07-06T04:46:55;12.20;;;8.03;;
3046;SDS011;1533;44.816;20.420;2022-07-06T04:49:21;10.10;;;8.93;;
3046;SDS011;1533;44.816;20.420;2022-07-06T04:51:46;9.07;;;7.90;;
3046;SDS011;1533;44.816;20.420;2022-07-06T04:54:12;9.80;;;8.80;;
3046;SDS011;1533;44.816;20.420;2022-07-06T04:56:37;9.33;;;8.40;;
3046;SDS011;1533;44.816;20.420;2022-07-06T04:59:02;9.70;;;8.57;;
3046;SDS011;1533;44.816;20.420;2022-07-06T05:01:28;10.83;;;9.50;;
3046;SDS011;1533;44.816;20.420;2022-07-06T05:03:54;10.10;;;9.20;;
3046;SDS011;1533;44.816;20.420;2022-07-06T05:06:19;13.33;;;8.70;;
3046;SDS011;1533;44.816;20.420;2022-07-06T05:08:47;12.30;;;9.77;;
3046;SDS011;1533;44.816;20.420;2022-07-06T05:11:13;13.47;;;9.53;;
3046;SDS011;1533;44.816;20.420;2022-07-06T05:13:41;10.87;;;9.77;;
3046;SDS011;1533;44.816;20.420;2022-07-06T05:16:07;9.73;;;8.73;;
3046;SDS011;1533;44.816;20.420;2022-07-06T05:18:33;10.87;;;9.77;;
3046;SDS011;1533;44.816;20.420;2022-07-06T05:20:58;9.77;;;8.67;;
3046;SDS011;1533;44.816;20.420;2022-07-06T05:23:23;9.13;;;8.13;;
3046;SDS011;1533;44.816;20.420;2022-07-06T05:25:53;11.27;;;9.57;;
3046;SDS011;1533;44.816;20.420;2022-07-06T05:28:18;12.70;;;8.73;;
3046;SDS011;1533;44.816;20.420;2022-07-06T05:30:47;11.43;;;8.70;;
3046;SDS011;1533;44.816;20.420;2022-07-06T05:33:12;9.27;;;8.30;;
3046;SDS011;1533;44.816;20.420;2022-07-06T05:35:38;9.63;;;7.90;;
3046;SDS011;1533;44.816;20.420;2022-07-06T05:38:06;9.50;;;7.90;;
3046;SDS011;1533;44.816;20.420;2022-07-06T05:40:32;9.47;;;8.67;;
3046;SDS011;1533;44.816;20.420;2022-07-06T05:42:57;9.57;;;8.67;;
3046;SDS011;1533;44.816;20.420;2022-07-06T05:45:23;10.70;;;8.60;;
3046;SDS011;1533;44.816;20.420;2022-07-06T05:47:51;9.50;;;8.70;;
3046;SDS011;1533;44.816;20.420;2022-07-06T05:50:35;9.40;;;8.60;;
3046;SDS011;1533;44.816;20.420;2022-07-06T05:53:02;10.17;;;8.40;;
3046;SDS011;1533;44.816;20.420;2022-07-06T05:55:29;11.10;;;10.10;;
3046;SDS011;1533;44.816;20.420;2022-07-06T05:57:55;11.70;;;10.60;;
3046;SDS011;1533;44.816;20.420;2022-07-06T06:00:26;8.40;;;7.43;;
3046;SDS011;1533;44.816;20.420;2022-07-06T06:02:52;10.17;;;8.60;;
3046;SDS011;1533;44.816;20.420;2022-07-06T06:05:18;12.17;;;8.20;;
3046;SDS011;1533;44.816;20.420;2022-07-06T06:07:44;10.10;;;8.67;;
3046;SDS011;1533;44.816;20.420;2022-07-06T06:10:12;9.80;;;8.90;;
3046;SDS011;1533;44.816;20.420;2022-07-06T06:12:38;11.70;;;8.60;;
3046;SDS011;1533;44.816;20.420;2022-07-06T06:15:04;9.10;;;8.30;;
3046;SDS011;1533;44.816;20.420;2022-07-06T06:17:31;8.47;;;6.87;;
3046;SDS011;1533;44.816;20.420;2022-07-06T06:19:57;8.60;;;7.70;;
3046;SDS011;1533;44.816;20.420;2022-07-06T06:22:23;9.53;;;8.53;;
3046;SDS011;1533;44.816;20.420;2022-07-06T06:24:48;8.43;;;7.67;;
3046;SDS011;1533;44.816;20.420;2022-07-06T06:27:14;8.97;;;8.00;;
3046;SDS011;1533;44.816;20.420;2022-07-06T06:29:39;9.40;;;8.43;;
3046;SDS011;1533;44.816;20.420;2022-07-06T06:32:06;9.80;;;8.33;;
3046;SDS011;1533;44.816;20.420;2022-07-06T06:34:32;10.40;;;9.50;;
3046;SDS011;1533;44.816;20.420;2022-07-06T06:36:57;9.40;;;8.60;;
3046;SDS011;1533;44.816;20.420;2022-07-06T06:39:23;9.70;;;8.50;;
3046;SDS011;1533;44.816;20.420;2022-07-06T06:41:48;11.67;;;8.80;;
3046;SDS011;1533;44.816;20.420;2022-07-06T06:44:14;11.17;;;8.20;;
3046;SDS011;1533;44.816;20.420;2022-07-06T06:46:42;9.20;;;8.30;;
3046;SDS011;1533;44.816;20.420;2022-07-06T06:49:07;10.63;;;9.53;;
3046;SDS011;1533;44.816;20.420;2022-07-06T06:51:36;8.40;;;7.70;;
3046;SDS011;1533;44.816;20.420;2022-07-06T06:54:04;9.10;;;8.30;;
3046;SDS011;1533;44.816;20.420;2022-07-06T06:56:30;7.30;;;6.33;;
3046;SDS011;1533;44.816;20.420;2022-07-06T06:58:55;7.30;;;6.60;;
3046;SDS011;1533;44.816;20.420;2022-07-06T07:01:21;7.90;;;7.10;;
3046;SDS011;1533;44.816;20.420;2022-07-06T07:03:46;7.43;;;6.73;;
3046;SDS011;1533;44.816;20.420;2022-07-06T07:06:13;7.07;;;6.37;;
3046;SDS011;1533;44.816;20.420;2022-07-06T07:08:41;7.77;;;7.13;;
3046;SDS011;1533;44.816;20.420;2022-07-06T07:11:07;7.70;;;6.90;;
3046;SDS011;1533;44.816;20.420;2022-07-06T07:13:32;6.60;;;5.50;;
3046;SDS011;1533;44.816;20.420;2022-07-06T07:15:58;7.43;;;6.57;;
3046;SDS011;1533;44.816;20.420;2022-07-06T07:18:23;7.50;;;6.87;;
3046;SDS011;1533;44.816;20.420;2022-07-06T07:20:51;7.03;;;6.17;;
3046;SDS011;1533;44.816;20.420;2022-07-06T07:23:16;6.60;;;5.97;;
3046;SDS011;1533;44.816;20.420;2022-07-06T07:25:42;7.37;;;6.57;;
3046;SDS011;1533;44.816;20.420;2022-07-06T07:28:07;7.80;;;5.93;;
3046;SDS011;1533;44.816;20.420;2022-07-06T07:30:33;7.80;;;7.00;;
3046;SDS011;1533;44.816;20.420;2022-07-06T07:32:59;11.70;;;6.27;;
3046;SDS011;1533;44.816;20.420;2022-07-06T07:35:28;6.90;;;6.30;;
3046;SDS011;1533;44.816;20.420;2022-07-06T07:37:53;7.30;;;6.70;;
3046;SDS011;1533;44.816;20.420;2022-07-06T07:40:19;7.40;;;6.80;;
3046;SDS011;1533;44.816;20.420;2022-07-06T07:42:44;8.93;;;6.50;;
3046;SDS011;1533;44.816;20.420;2022-07-06T07:45:11;7.03;;;6.43;;
3046;SDS011;1533;44.816;20.420;2022-07-06T07:47:37;9.00;;;6.57;;
3046;SDS011;1533;44.816;20.420;2022-07-06T07:50:03;6.70;;;6.13;;
3046;SDS011;1533;44.816;20.420;2022-07-06T07:52:29;8.47;;;7.33;;
3046;SDS011;1533;44.816;20.420;2022-07-06T07:54:56;6.83;;;6.20;;
3046;SDS011;1533;44.816;20.420;2022-07-06T07:57:22;6.77;;;6.27;;
3046;SDS011;1533;44.816;20.420;2022-07-06T07:59:47;7.37;;;6.67;;
3046;SDS011;1533;44.816;20.420;2022-07-06T08:02:13;13.00;;;11.70;;
3046;SDS011;1533;44.816;20.420;2022-07-06T08:04:38;12.93;;;11.63;;
3046;SDS011;1533;44.816;20.420;2022-07-06T08:07:04;7.43;;;6.70;;
3046;SDS011;1533;44.816;20.420;2022-07-06T08:09:29;7.40;;;6.80;;
3046;SDS011;1533;44.816;20.420;2022-07-06T08:11:55;7.40;;;6.80;;
3046;SDS011;1533;44.816;20.420;2022-07-06T08:14:20;7.50;;;6.80;;
3046;SDS011;1533;44.816;20.420;2022-07-06T08:16:46;7.20;;;6.50;;
3046;SDS011;1533;44.816;20.420;2022-07-06T08:19:11;7.00;;;6.40;;
3046;SDS011;1533;44.816;20.420;2022-07-06T08:21:40;7.33;;;6.57;;
3046;SDS011;1533;44.816;20.420;2022-07-06T08:24:06;7.50;;;6.90;;
3046;SDS011;1533;44.816;20.420;2022-07-06T08:26:31;7.63;;;7.03;;
3046;SDS011;1533;44.816;20.420;2022-07-06T08:28:57;7.47;;;6.87;;
3046;SDS011;1533;44.816;20.420;2022-07-06T08:31:23;6.00;;;5.50;;
3046;SDS011;1533;44.816;20.420;2022-07-06T08:33:51;6.97;;;6.37;;
3046;SDS011;1533;44.816;20.420;2022-07-06T08:36:18;6.63;;;6.03;;
3046;SDS011;1533;44.816;20.420;2022-07-06T08:38:45;6.50;;;5.90;;
3046;SDS011;1533;44.816;20.420;2022-07-06T08:41:10;7.20;;;6.50;;
3046;SDS011;1533;44.816;20.420;2022-07-06T08:43:36;7.07;;;6.47;;
3046;SDS011;1533;44.816;20.420;2022-07-06T08:46:01;7.07;;;6.40;;
3046;SDS011;1533;44.816;20.420;2022-07-06T08:48:28;7.77;;;7.07;;
3046;SDS011;1533;44.816;20.420;2022-07-06T08:51:04;9.03;;;6.30;;
3046;SDS011;1533;44.816;20.420;2022-07-06T08:53:30;7.50;;;6.90;;
3046;SDS011;1533;44.816;20.420;2022-07-06T08:55:55;7.30;;;6.70;;
3046;SDS011;1533;44.816;20.420;2022-07-06T08:58:24;7.70;;;6.87;;
3046;SDS011;1533;44.816;20.420;2022-07-06T09:00:51;7.27;;;6.67;;
3046;SDS011;1533;44.816;20.420;2022-07-06T09:03:20;7.17;;;6.50;;
3046;SDS011;1533;44.816;20.420;2022-07-06T09:05:46;6.67;;;6.07;;
3046;SDS011;1533;44.816;20.420;2022-07-06T09:08:12;6.67;;;6.17;;
3046;SDS011;1533;44.816;20.420;2022-07-06T09:10:37;7.97;;;6.57;;
3046;SDS011;1533;44.816;20.420;2022-07-06T09:13:04;6.63;;;6.03;;
3046;SDS011;1533;44.816;20.420;2022-07-06T09:15:31;5.93;;;5.40;;
3046;SDS011;1533;44.816;20.420;2022-07-06T09:17:57;6.13;;;5.63;;
3046;SDS011;1533;44.816;20.420;2022-07-06T09:20:22;6.70;;;6.00;;
3046;SDS011;1533;44.816;20.420;2022-07-06T09:22:48;5.93;;;5.43;;
3046;SDS011;1533;44.816;20.420;2022-07-06T09:25:15;5.50;;;5.00;;
3046;SDS011;1533;44.816;20.420;2022-07-06T09:27:42;9.73;;;6.03;;
3046;SDS011;1533;44.816;20.420;2022-07-06T09:30:16;9.77;;;6.20;;
3046;SDS011;1533;44.816;20.420;2022-07-06T09:32:43;5.50;;;5.10;;
3046;SDS011;1533;44.816;20.420;2022-07-06T09:37:45;10.37;;;9.37;;
3046;SDS011;1533;44.816;20.420;2022-07-06T09:40:17;5.83;;;5.40;;
3046;SDS011;1533;44.816;20.420;2022-07-06T09:42:45;5.70;;;5.30;;
3046;SDS011;1533;44.816;20.420;2022-07-06T09:45:11;5.97;;;5.47;;
3046;SDS011;1533;44.816;20.420;2022-07-06T09:47:36;5.70;;;5.20;;
3046;SDS011;1533;44.816;20.420;2022-07-06T09:50:08;5.50;;;5.00;;
3046;SDS011;1533;44.816;20.420;2022-07-06T09:52:34;6.37;;;5.37;;
3046;SDS011;1533;44.816;20.420;2022-07-06T09:54:59;5.47;;;5.00;;
3046;SDS011;1533;44.816;20.420;2022-07-06T09:57:25;6.20;;;4.90;;
3046;SDS011;1533;44.816;20.420;2022-07-06T09:59:51;5.40;;;5.00;;
3046;SDS011;1533;44.816;20.420;2022-07-06T10:02:22;5.83;;;4.93;;
3046;SDS011;1533;44.816;20.420;2022-07-06T10:04:52;5.23;;;4.83;;
3046;SDS011;1533;44.816;20.420;2022-07-06T10:07:19;4.83;;;4.43;;
3046;SDS011;1533;44.816;20.420;2022-07-06T10:09:46;5.23;;;4.83;;
3046;SDS011;1533;44.816;20.420;2022-07-06T10:12:14;4.47;;;4.07;;
3046;SDS011;1533;44.816;20.420;2022-07-06T10:14:42;6.03;;;5.43;;
3046;SDS011;1533;44.816;20.420;2022-07-06T10:17:08;4.67;;;4.27;;
3046;SDS011;1533;44.816;20.420;2022-07-06T10:19:34;4.63;;;4.23;;
3046;SDS011;1533;44.816;20.420;2022-07-06T10:22:11;4.50;;;4.10;;
3046;SDS011;1533;44.816;20.420;2022-07-06T10:25:00;5.43;;;4.97;;
3046;SDS011;1533;44.816;20.420;2022-07-06T10:27:27;5.90;;;5.10;;
3046;SDS011;1533;44.816;20.420;2022-07-06T10:29:56;4.67;;;4.27;;
3046;SDS011;1533;44.816;20.420;2022-07-06T10:32:22;5.40;;;4.50;;
3046;SDS011;1533;44.816;20.420;2022-07-06T10:34:52;6.47;;;4.60;;
3046;SDS011;1533;44.816;20.420;2022-07-06T10:37:24;6.23;;;4.77;;
3046;SDS011;1533;44.816;20.420;2022-07-06T10:40:09;4.50;;;4.10;;
3046;SDS011;1533;44.816;20.420;2022-07-06T10:43:18;4.93;;;4.53;;
3046;SDS011;1533;44.816;20.420;2022-07-06T10:50:41;3.60;;;3.30;;
3046;SDS011;1533;44.816;20.420;2022-07-06T10:53:12;6.03;;;5.53;;
3046;SDS011;1533;44.816;20.420;2022-07-06T10:55:39;6.77;;;6.07;;
3046;SDS011;1533;44.816;20.420;2022-07-06T10:58:06;4.33;;;3.93;;
3046;SDS011;1533;44.816;20.420;2022-07-06T11:00:51;4.40;;;4.10;;
3046;SDS011;1533;44.816;20.420;2022-07-06T11:06:09;3.73;;;3.43;;
3046;SDS011;1533;44.816;20.420;2022-07-06T11:14:06;4.13;;;3.80;;
3046;SDS011;1533;44.816;20.420;2022-07-06T11:16:36;4.10;;;3.80;;
3046;SDS011;1533;44.816;20.420;2022-07-06T11:19:21;4.70;;;2.90;;
3046;SDS011;1533;44.816;20.420;2022-07-06T11:21:51;5.40;;;3.93;;
3046;SDS011;1533;44.816;20.420;2022-07-06T11:24:21;5.10;;;3.60;;
3046;SDS011;1533;44.816;20.420;2022-07-06T11:26:57;4.23;;;3.60;;
3046;SDS011;1533;44.816;20.420;2022-07-06T11:29:24;3.87;;;3.57;;
3046;SDS011;1533;44.816;20.420;2022-07-06T11:31:54;4.50;;;3.60;;
3046;SDS011;1533;44.816;20.420;2022-07-06T11:34:22;4.77;;;3.80;;
3046;SDS011;1533;44.816;20.420;2022-07-06T11:36:49;4.90;;;3.53;;
3046;SDS011;1533;44.816;20.420;2022-07-06T11:39:15;7.13;;;3.47;;
3046;SDS011;1533;44.816;20.420;2022-07-06T11:41:41;3.20;;;2.90;;
3046;SDS011;1533;44.816;20.420;2022-07-06T11:44:08;3.60;;;2.90;;
3046;SDS011;1533;44.816;20.420;2022-07-06T11:46:35;4.73;;;3.50;;
3046;SDS011;1533;44.816;20.420;2022-07-06T11:49:02;3.57;;;3.00;;
3046;SDS011;1533;44.816;20.420;2022-07-06T11:51:35;4.30;;;3.20;;
3046;SDS011;1533;44.816;20.420;2022-07-06T11:54:22;4.93;;;3.70;;
3046;SDS011;1533;44.816;20.420;2022-07-06T11:56:54;3.60;;;3.03;;
3046;SDS011;1533;44.816;20.420;2022-07-06T12:02:02;4.10;;;2.90;;
3046;SDS011;1533;44.816;20.420;2022-07-06T12:04:40;4.57;;;3.60;;
3046;SDS011;1533;44.816;20.420;2022-07-06T12:07:07;3.37;;;3.07;;
3046;SDS011;1533;44.816;20.420;2022-07-06T12:09:52;4.70;;;3.50;;
3046;SDS011;1533;44.816;20.420;2022-07-06T12:12:20;4.67;;;3.80;;
3046;SDS011;1533;44.816;20.420;2022-07-06T12:14:46;7.70;;;3.20;;
3046;SDS011;1533;44.816;20.420;2022-07-06T12:17:12;4.30;;;3.30;;
3046;SDS011;1533;44.816;20.420;2022-07-06T12:19:39;5.73;;;3.10;;
3046;SDS011;1533;44.816;20.420;2022-07-06T12:22:06;12.50;;;3.53;;
3046;SDS011;1533;44.816;20.420;2022-07-06T12:24:32;4.63;;;3.50;;
3046;SDS011;1533;44.816;20.420;2022-07-06T12:27:09;3.43;;;2.50;;
3046;SDS011;1533;44.816;20.420;2022-07-06T12:29:39;4.13;;;3.73;;
3046;SDS011;1533;44.816;20.420;2022-07-06T12:32:05;3.43;;;3.13;;
3046;SDS011;1533;44.816;20.420;2022-07-06T12:34:31;3.43;;;3.00;;
3046;SDS011;1533;44.816;20.420;2022-07-06T12:37:02;3.70;;;3.20;;
3046;SDS011;1533;44.816;20.420;2022-07-06T12:39:31;3.77;;;3.37;;
3046;SDS011;1533;44.816;20.420;2022-07-06T12:42:08;3.33;;;3.03;;
3046;SDS011;1533;44.816;20.420;2022-07-06T12:44:44;3.40;;;3.10;;
3046;SDS011;1533;44.816;20.420;2022-07-06T12:47:11;3.43;;;3.13;;
3046;SDS011;1533;44.816;20.420;2022-07-06T12:49:37;3.70;;;3.13;;
3046;SDS011;1533;44.816;20.420;2022-07-06T12:54:33;7.53;;;4.00;;
3046;SDS011;1533;44.816;20.420;2022-07-06T12:57:07;3.23;;;2.90;;
3046;SDS011;1533;44.816;20.420;2022-07-06T13:02:34;3.80;;;2.70;;
3046;SDS011;1533;44.816;20.420;2022-07-06T13:05:03;5.10;;;3.20;;
3046;SDS011;1533;44.816;20.420;2022-07-06T13:07:31;4.17;;;3.03;;
3046;SDS011;1533;44.816;20.420;2022-07-06T13:10:01;6.60;;;3.53;;
3046;SDS011;1533;44.816;20.420;2022-07-06T13:12:30;3.37;;;3.07;;
3046;SDS011;1533;44.816;20.420;2022-07-06T13:14:56;4.90;;;3.27;;
3046;SDS011;1533;44.816;20.420;2022-07-06T13:17:22;3.50;;;2.80;;
3046;SDS011;1533;44.816;20.420;2022-07-06T13:19:49;3.10;;;2.77;;
3046;SDS011;1533;44.816;20.420;2022-07-06T13:22:15;4.50;;;2.73;;
3046;SDS011;1533;44.816;20.420;2022-07-06T13:24:44;4.17;;;3.03;;
3046;SDS011;1533;44.816;20.420;2022-07-06T13:27:10;6.00;;;3.10;;
3046;SDS011;1533;44.816;20.420;2022-07-06T13:29:41;3.50;;;3.00;;
3046;SDS011;1533;44.816;20.420;2022-07-06T13:32:07;3.33;;;3.03;;
3046;SDS011;1533;44.816;20.420;2022-07-06T13:34:33;4.10;;;3.40;;
3046;SDS011;1533;44.816;20.420;2022-07-06T13:37:00;3.90;;;2.67;;
3046;SDS011;1533;44.816;20.420;2022-07-06T13:39:26;4.10;;;3.17;;
3046;SDS011;1533;44.816;20.420;2022-07-06T13:41:54;4.67;;;3.13;;
3046;SDS011;1533;44.816;20.420;2022-07-06T13:44:23;3.73;;;3.43;;
3046;SDS011;1533;44.816;20.420;2022-07-06T13:46:49;3.83;;;3.27;;
3046;SDS011;1533;44.816;20.420;2022-07-06T13:49:15;3.80;;;2.70;;
3046;SDS011;1533;44.816;20.420;2022-07-06T13:51:46;4.07;;;2.90;;
3046;SDS011;1533;44.816;20.420;2022-07-06T13:54:14;3.60;;;3.30;;
3046;SDS011;1533;44.816;20.420;2022-07-06T13:56:40;4.20;;;3.60;;
3046;SDS011;1533;44.816;20.420;2022-07-06T13:59:06;5.20;;;3.27;;
3046;SDS011;1533;44.816;20.420;2022-07-06T14:01:34;3.87;;;3.10;;
3046;SDS011;1533;44.816;20.420;2022-07-06T14:04:00;8.60;;;3.50;;
3046;SDS011;1533;44.816;20.420;2022-07-06T14:06:29;3.70;;;3.40;;
3046;SDS011;1533;44.816;20.420;2022-07-06T14:08:58;4.57;;;3.60;;
3046;SDS011;1533;44.816;20.420;2022-07-06T14:11:23;4.13;;;3.00;;
3046;SDS011;1533;44.816;20.420;2022-07-06T14:13:52;3.53;;;3.20;;
3046;SDS011;1533;44.816;20.420;2022-07-06T14:16:17;4.03;;;3.60;;
3046;SDS011;1533;44.816;20.420;2022-07-06T14:18:45;4.43;;;3.53;;
3046;SDS011;1533;44.816;20.420;2022-07-06T14:21:13;4.60;;;3.47;;
3046;SDS011;1533;44.816;20.420;2022-07-06T14:23:39;4.27;;;3.37;;
3046;SDS011;1533;44.816;20.420;2022-07-06T14:26:07;4.13;;;3.73;;
3046;SDS011;1533;44.816;20.420;2022-07-06T14:28:46;5.40;;;3.50;;
3046;SDS011;1533;44.816;20.420;2022-07-06T14:31:22;4.33;;;3.90;;
3046;SDS011;1533;44.816;20.420;2022-07-06T14:33:48;4.30;;;3.90;;
3046;SDS011;1533;44.816;20.420;2022-07-06T14:36:14;4.60;;;3.80;;
3046;SDS011;1533;44.816;20.420;2022-07-06T14:38:43;3.63;;;3.33;;
3046;SDS011;1533;44.816;20.420;2022-07-06T14:41:09;4.10;;;3.70;;
3046;SDS011;1533;44.816;20.420;2022-07-06T14:43:38;5.80;;;3.90;;
3046;SDS011;1533;44.816;20.420;2022-07-06T14:46:05;4.47;;;4.07;;
3046;SDS011;1533;44.816;20.420;2022-07-06T14:48:33;4.07;;;3.67;;
3046;SDS011;1533;44.816;20.420;2022-07-06T14:50:59;5.07;;;4.57;;
3046;SDS011;1533;44.816;20.420;2022-07-06T14:53:25;9.70;;;4.13;;
3046;SDS011;1533;44.816;20.420;2022-07-06T14:55:51;4.33;;;3.93;;
3046;SDS011;1533;44.816;20.420;2022-07-06T14:58:19;5.30;;;4.90;;
3046;SDS011;1533;44.816;20.420;2022-07-06T15:00:47;5.10;;;4.70;;
3046;SDS011;1533;44.816;20.420;2022-07-06T15:03:13;5.70;;;4.83;;
3046;SDS011;1533;44.816;20.420;2022-07-06T15:05:39;5.43;;;4.90;;
3046;SDS011;1533;44.816;20.420;2022-07-06T15:08:14;4.70;;;4.30;;
3046;SDS011;1533;44.816;20.420;2022-07-06T15:18:49;3.70;;;3.40;;
3046;SDS011;1533;44.816;20.420;2022-07-06T15:22:39;4.30;;;3.80;;
3046;SDS011;1533;44.816;20.420;2022-07-06T16:03:14;3.73;;;3.30;;
3046;SDS011;1533;44.816;20.420;2022-07-06T16:05:41;4.23;;;3.00;;
3046;SDS011;1533;44.816;20.420;2022-07-06T16:09:15;3.30;;;2.70;;
3046;SDS011;1533;44.816;20.420;2022-07-06T16:12:24;3.20;;;2.73;;